• Join FlightAware (Why Join?)
  • Login
  • US Flag 
12:45AM EDT


 

Airport Tracker/Info


-or-


 

Live Flight TrackerFlight Track Log ✈ SWA2855 ✈ 11-Jul-2013 ✈ KDEN - KPHL

Flight Track Log - Related Links

Times and Time Zones

All times are in EDT time to prevent confusion due to time zone crossing. See the SWA2855 flight status page for this flight to view local times or setup timezone preferences in your user account.

Time Position Orientation Groundspeed Altitude Reporting Facility
EDT Latitude Longitude Course Direction KTS MPH feet Rate Location/Type
11:46AM 39.8000 -104.6333 131° Southeast 189 217 7,100  Level Denver TRACON
11:47AM 39.7667 -104.5833 131° Southeast 235 270 8,900 1,980 Climbing Denver TRACON
11:48AM 39.6983 -104.5289 148° Southeast 267 307 11,000 1,860 Climbing Denver Center
11:49AM 39.6617 -104.4314 116° Southeast 320 368 12,800 1,200 Climbing Denver Center
11:50AM 39.6650 -104.2892 88° East 368 423 13,600 1,800 Climbing Denver Center
11:51AM 39.7169 -104.1775 59° Northeast 367 422 16,600 2,640 Climbing Denver Center
11:52AM 39.7856 -104.0611 52° Northeast 378 435 19,100 2,220 Climbing Denver Center
11:53AM 39.8189 -103.9203 73° East 415 478 21,200 2,160 Climbing Denver Center
11:54AM 39.8386 -103.7614 81° East 416 479 23,600 1,980 Climbing Denver Center
11:55AM 39.8583 -103.6222 79° East 413 475 25,400 1,140 Climbing Denver Center
11:56AM 39.8772 -103.4653 81° East 434 499 26,000 240 Climbing Denver Center
11:57AM 39.8975 -103.3086 80° East 440 506 26,000 240 Level Denver Center
11:58AM 39.9214 -103.1211 81° East 437 503 26,500 960 Climbing Denver Center
11:59AM 39.9411 -102.9628 81° East 444 511 28,000 1,320 Climbing Denver Center
12:00PM 39.9614 -102.7956 81° East 463 533 29,300 1,380 Climbing Denver Center
12:01PM 39.9831 -102.6083 81° East 478 550 30,900 1,500 Climbing Denver Center
12:02PM 40.0019 -102.4442 81° East 478 550 32,500 1,500 Climbing Denver Center
12:03PM 40.0258 -102.2519 81° East 480 552 34,100 1,320 Climbing Denver Center
12:04PM 40.0433 -102.0850 82° East 486 559 35,500 1,260 Climbing Denver Center
12:05PM 40.0650 -101.8950 81° East 475 547 37,000 720 Climbing Denver Center
12:06PM 40.0864 -101.7036 82° East 478 550 37,000  Level Denver Center
12:07PM 40.1075 -101.5125 82° East 478 550 37,000  Level Denver Center
12:09PM 40.1247 -101.3461 82° East 483 556 37,000  Level Denver Center
12:10PM 40.1453 -101.1542 82° East 480 552 37,000  Level Denver Center
12:11PM 40.1628 -100.9917 82° East 477 549 37,000  Level Denver Center
12:12PM 40.1819 -100.7981 83° East 482 555 37,000  Level Denver Center
12:13PM 40.1986 -100.6356 82° East 477 549 37,000  Level Denver Center
12:14PM 40.2167 -100.4456 83° East 475 547 37,000  Level Denver Center
12:15PM 40.2336 -100.2825 82° East 476 548 37,000  Level Denver Center
12:16PM 40.2525 -100.0903 83° East 477 549 37,000  Level Denver Center
12:17PM 40.2672 -99.9258 83° East 477 549 37,000  Level Denver Center
12:18PM 40.2853 -99.7444 83° East 482 555 37,000  Level Denver Center
12:19PM 40.3006 -99.5697 83° East 484 557 37,000  Level Denver Center
12:20PM 40.3206 -99.3642 83° East 478 550 37,000  Level Denver Center
12:21PM 40.3356 -99.1906 83° East 480 552 37,000  Level Denver Center
12:22PM 40.3503 -99.0183 84° East 480 552 37,000  Level Minneapolis Center
12:23PM 40.3644 -98.8450 84° East 480 552 37,000  Level Minneapolis Center
12:24PM 40.3789 -98.6711 84° East 479 551 37,000  Level Denver Center
12:25PM 40.3956 -98.4664 84° East 478 550 37,000  Level Minneapolis Center
12:26PM 40.4094 -98.2933 84° East 479 551 37,000  Level Minneapolis Center
12:27PM 40.4231 -98.1203 84° East 479 551 37,000  Level Minneapolis Center
12:28PM 40.4367 -97.9456 84° East 482 555 37,000  Level Minneapolis Center
12:29PM 40.4494 -97.7706 84° East 482 555 37,000  Level Minneapolis Center
12:30PM 40.4650 -97.5608 84° East 484 557 37,000  Level Minneapolis Center
12:31PM 40.4775 -97.3836 85° East 488 562 37,000  Level Minneapolis Center
12:32PM 40.4892 -97.2297 84° East 486 559 37,000  Level Minneapolis Center
12:33PM 40.5039 -97.0150 85° East 491 565 37,000  Level Minneapolis Center
12:34PM 40.5161 -96.8375 85° East 491 565 37,000  Level Minneapolis Center
12:35PM 40.5278 -96.6594 85° East 490 564 37,000  Level Minneapolis Center
12:36PM 40.5392 -96.4794 85° East 495 570 37,000  Level Minneapolis Center
12:38PM 40.5506 -96.3014 85° East 494 568 37,000  Level Minneapolis Center
12:39PM 40.5636 -96.0886 85° East 491 565 37,000  Level Minneapolis Center
12:40PM 40.5733 -95.9103 86° East 491 565 37,000  Level Minneapolis Center
12:41PM 40.5853 -95.7286 85° East 498 573 37,000  Level Minneapolis Center
12:42PM 40.5953 -95.5525 86° East 492 566 37,000  Level Minneapolis Center
12:43PM 40.6053 -95.3756 86° East 488 562 37,000  Level Minneapolis Center
12:44PM 40.6167 -95.1644 86° East 486 559 37,000  Level Minneapolis Center
12:45PM 40.6261 -94.9883 86° East 485 558 37,000  Level Minneapolis Center
12:46PM 40.6342 -94.8106 87° East 488 562 37,000  Level Minneapolis Center
12:47PM 40.6436 -94.6331 86° East 488 562 37,000  Level Minneapolis Center
12:48PM 40.6517 -94.4639 86° East 488 562 37,000  Level Minneapolis Center
12:49PM 40.6606 -94.2531 87° East 485 558 37,000  Level Minneapolis Center
12:50PM 40.6683 -94.0783 87° East 483 556 37,000  Level Minneapolis Center
12:51PM 40.6750 -93.9047 87° East 481 554 37,000  Level Minneapolis Center
12:52PM 40.6825 -93.7283 87° East 483 556 37,000  Level Minneapolis Center
12:53PM 40.6892 -93.5494 87° East 486 559 37,000  Level Chicago Center
12:54PM 40.6967 -93.3725 87° East 486 559 37,000  Level Chicago Center
12:55PM 40.7031 -93.1939 87° East 489 563 37,000  Level Chicago Center
12:56PM 40.7092 -93.0150 87° East 490 564 37,000  Level Chicago Center
12:57PM 40.7156 -92.8369 87° East 489 563 37,000  Level Chicago Center
12:58PM 40.7214 -92.6572 87° East 490 564 37,000  Level Chicago Center
12:59PM 40.7275 -92.4444 88° East 484 557 37,000  Level Chicago Center
01:00PM 40.7319 -92.2658 88° East 488 562 37,000  Level Chicago Center
01:01PM 40.7372 -92.0894 88° East 485 558 37,000  Level Chicago Center
01:02PM 40.7408 -91.9111 88° East 488 562 37,000  Level Chicago Center
01:03PM 40.7464 -91.7358 88° East 484 557 37,000  Level Chicago Center
01:04PM 40.7494 -91.5208 89° East 489 563 37,000  Level Chicago Center
01:05PM 40.7525 -91.3422 89° East 492 566 37,000  Level Chicago Center
01:06PM 40.7558 -91.1578 89° East 491 565 37,000  Level Chicago Center
01:07PM 40.7606 -90.9781 88° East 492 566 37,000  Level Chicago Center
01:08PM 40.7628 -90.7964 89° East 494 568 37,000  Level Chicago Center
01:09PM 40.7664 -90.6144 88° East 496 571 37,000  Level Chicago Center
01:10PM 40.7678 -90.4342 89° East 496 571 37,000  Level Chicago Center
01:12PM 40.7697 -90.2317 89° East 496 571 37,000  Level Chicago Center
01:13PM 40.7722 -90.0522 89° East 492 566 37,000  Level Chicago Center
01:14PM 40.7719 -89.8364 90° East 495 570 37,000  Level Chicago Center
01:15PM 40.7689 -89.6572 91° East 495 570 37,000  Level Chicago Center
01:16PM 40.7753 -89.4781 87° East 495 570 37,000  Level Chicago Center
01:17PM 40.7742 -89.3011 90° East 482 555 37,000  Level Chicago Center
01:18PM 40.7731 -89.1233 90° East 482 555 37,000  Level Chicago Center
01:19PM 40.7728 -88.9442 90° East 486 559 37,000  Level Chicago Center
01:20PM 40.7736 -88.7392 90° East 487 560 37,000  Level Chicago Center
01:21PM 40.7731 -88.5633 90° East 485 558 37,000  Level Chicago Center
01:22PM 40.7717 -88.3867 91° East 489 563 37,000  Level Chicago Center
01:23PM 40.7719 -88.2122 90° East 482 555 37,000  Level Chicago Center
01:24PM 40.7697 -88.0003 91° East 488 562 37,000  Level Chicago Center
01:25PM 40.7686 -87.8239 90° East 488 562 37,000  Level Chicago Center
01:26PM 40.7667 -87.6464 91° East 489 563 37,000  Level Chicago Center
01:27PM 40.7656 -87.4683 90° East 492 566 37,000  Level Chicago Center
01:28PM 40.7614 -87.2569 91° East 488 562 37,000  Level Chicago Center
01:30PM 40.7550 -86.9714 92° East 496 571 37,000  Level Indianapolis Center
01:31PM 40.7514 -86.7894 91° East 496 571 37,000  Level Indianapolis Center
01:32PM 40.7478 -86.6061 91° East 499 574 37,000  Level Indianapolis Center
01:33PM 40.7428 -86.4231 92° East 500 575 37,000  Level Indianapolis Center
01:34PM 40.7378 -86.2036 92° East 499 574 37,000  Level Indianapolis Center
01:35PM 40.7336 -86.0181 92° East 504 580 37,000  Level Indianapolis Center
01:36PM 40.7283 -85.8358 92° East 500 575 37,000  Level Indianapolis Center
01:37PM 40.7233 -85.6528 92° East 501 577 37,000  Level Indianapolis Center
01:38PM 40.7167 -85.4722 93° East 496 571 37,000  Level Indianapolis Center
01:39PM 40.7108 -85.2889 92° East 500 575 37,000  Level Indianapolis Center
01:40PM 40.7039 -85.0711 92° East 497 572 37,000  Level Indianapolis Center
01:41PM 40.6967 -84.8814 93° East 497 572 37,000  Level Indianapolis Center
01:42PM 40.6889 -84.6969 93° East 499 574 37,000  Level Indianapolis Center
01:43PM 40.6828 -84.5128 92° East 498 573 37,000  Level Indianapolis Center
01:44PM 40.6761 -84.3261 93° East 504 580 37,000  Level Indianapolis Center
01:45PM 40.6678 -84.1403 93° East 504 580 37,000  Level Indianapolis Center
01:46PM 40.6619 -84.0158 93° East 505 581 37,000  Level Indianapolis Center
01:47PM 40.6533 -83.8261 93° East 511 588 37,000  Level Indianapolis Center
01:48PM 40.6453 -83.6367 93° East 511 588 37,000  Level Indianapolis Center
01:49PM 40.6361 -83.4469 94° East 513 590 37,000  Level Indianapolis Center
01:51PM 40.6167 -83.0694 94° East 510 587 37,000  Level Indianapolis Center
01:52PM 40.6069 -82.8819 94° East 509 586 37,000  Level Indianapolis Center
01:53PM 40.5972 -82.6958 94° East 510 587 37,000  Level Indianapolis Center
01:54PM 40.5839 -82.4792 95° East 508 585 37,000  Level Indianapolis Center
01:55PM 40.5736 -82.2939 94° East 506 582 37,000  Level Indianapolis Center
01:56PM 40.5625 -82.1097 94° East 505 581 37,000  Level Indianapolis Center
01:57PM 40.5508 -81.9250 95° East 506 582 37,000  Level Indianapolis Center
01:58PM 40.5383 -81.7406 95° East 506 582 37,000  Level Indianapolis Center
01:59PM 40.5294 -81.6211 96° East 500 575 37,000  Level Cleveland Center
02:00PM 40.5183 -81.4353 94° East 500 575 37,000  Level Cleveland Center
02:01PM 40.5092 -81.2358 93° East 500 575 37,000  Level Cleveland Center
02:02PM 40.4956 -81.0581 96° East 500 575 37,000  Level Cleveland Center
02:03PM 40.4836 -80.8778 95° East 500 575 37,000  Level Cleveland Center
02:04PM 40.4694 -80.6922 96° East 500 575 37,000  Level Cleveland Center
02:05PM 40.4569 -80.5122 95° East 500 575 37,000  Level Cleveland Center
02:06PM 40.4400 -80.3322 97° East 500 575 37,000  Level Cleveland Center
02:07PM 40.4269 -80.1494 95° East 500 575 37,000  Level Cleveland Center
02:08PM 40.4158 -79.9806 95° East 500 575 37,000  Level Cleveland Center
02:09PM 40.4000 -79.7981 96° East 507 583 37,000  Level Cleveland Center
02:10PM 40.3864 -79.6236 96° East 496 571 37,000  Level Cleveland Center
02:11PM 40.3700 -79.4439 97° East 496 571 37,000  Level Cleveland Center
02:12PM 40.3511 -79.2456 97° East 496 571 37,000  Level Cleveland Center
02:13PM 40.3344 -79.0661 97° East 501 577 37,000  Level Cleveland Center
02:14PM 40.3192 -78.8839 96° East 501 577 37,000 -660 Level Cleveland Center
02:15PM 40.3144 -78.7181 92° East 501 577 35,800 -6,000 Descending Cleveland Center
02:16PM 40.3156 -78.5328 89° East 501 577 25,000 -2,700 Descending Cleveland Center
02:18PM 40.3136 -78.1619 90° East 493 567 27,600 60 Climbing New York Center
02:19PM 40.3119 -77.9875 91° East 488 562 25,300 -1,320 Descending New York Center
02:20PM 40.3092 -77.8239 91° East 465 535 25,000 -180 Descending New York Center
02:21PM 40.3094 -77.6442 90° East 451 519 25,000 -360 Level New York Center
02:22PM 40.2964 -77.4742 96° East 456 525 24,400 -840 Descending New York Center
02:23PM 40.2722 -77.3058 101° East 461 531 23,400 -960 Descending New York Center
02:24PM 40.2489 -77.1647 102° East 461 531 22,500 -1,500 Descending New York Center
02:25PM 40.2261 -77.0050 101° East 456 525 20,400 -2,160 Descending New York Center
02:26PM 40.2028 -76.8506 101° East 445 512 18,200 -2,040 Descending New York Center
02:27PM 40.1814 -76.6967 100° East 427 491 16,300 -2,100 Descending New York Center
02:28PM 40.1581 -76.5397 101° East 411 473 14,100 -1,680 Descending New York Center
02:29PM 40.1375 -76.4050 101° East 397 457 13,000 -780 Descending New York Center
02:30PM 40.1183 -76.2811 101° East 387 445 12,600 -840 Descending New York Center
02:31PM 40.1119 -76.1478 94° East 370 426 11,400 -1,260 Descending New York Center
02:32PM 40.1008 -76.0192 96° East 340 391 10,200 -1,380 Descending New York Center
02:33PM 40.0936 -75.9047 95° East 325 374 8,700 -1,140 Descending New York Center
02:34PM 40.0836 -75.7981 97° East 304 350 8,000 -900 Descending New York Center
02:35PM 40.0772 -75.7028 95° East 298 343 7,000 -1,020 Descending New York Center
02:36PM 40.0736 -75.5886 92° East 293 337 6,000 -540 Descending New York Center
02:37PM 40.0689 -75.4958 94° East 288 331 6,000  Level New York Center
02:38PM 40.0628 -75.3869 94° East 288 331 6,000  Level New York Center
02:39PM 40.0600 -75.2975 92° East 278 320 6,000  Level New York Center
02:40PM 40.0333 -75.1833 107° East 278 320 6,000  Level Philadelphia TRACON
02:41PM 40.0167 -75.0833 102° East 224 258 6,000 -240 Level Philadelphia TRACON
02:42PM 39.9833 -75.0000 118° Southeast 222 255 5,600 -840 Descending Philadelphia TRACON
02:43PM 39.9667 -74.9500 113° Southeast 221 254 4,500 -1,260 Descending Philadelphia TRACON
02:44PM 39.9167 -75.0000 217° Southwest 202 232 3,400 -1,020 Descending Philadelphia TRACON
02:45PM 39.9000 -75.0667 252° West 187 215 2,500 -960 Descending Philadelphia TRACON
02:46PM 39.9000 -75.1167 270° West 188 216 1,600 -900 Descending Philadelphia TRACON
02:47PM 39.8833 -75.1833 252° West 134 154 800 -840 Descending Philadelphia TRACON
02:49PM 39.8667 -75.2333 247° West  Level FlightAware Approximate
02:56PM 39.8722 -75.2409 247° West  Level Estimated